createdAt,value
2019-05-20T00:01:01.634Z,94429.00
2019-05-20T00:03:33.536Z,94427.00
2019-05-20T00:06:05.897Z,94418.00
2019-05-20T00:08:38.154Z,94426.00
2019-05-20T00:11:10.146Z,94420.00
2019-05-20T00:13:42.497Z,94423.00
2019-05-20T00:16:14.545Z,94420.00
2019-05-20T00:18:46.850Z,94425.00
2019-05-20T00:21:18.709Z,94408.00
2019-05-20T00:23:50.959Z,94416.00
2019-05-20T00:26:22.813Z,94414.00
2019-05-20T00:28:54.996Z,94418.00
2019-05-20T00:31:26.968Z,94421.00
2019-05-20T00:33:59.519Z,94413.00
2019-05-20T00:36:31.727Z,94414.00
2019-05-20T00:39:20.206Z,94406.00
2019-05-20T00:41:52.070Z,94412.00
2019-05-20T00:44:24.044Z,94421.00
2019-05-20T00:46:55.885Z,94421.00
2019-05-20T00:49:28.041Z,94422.00
2019-05-20T00:51:59.896Z,94420.00
2019-05-20T00:54:32.060Z,94433.00
2019-05-20T00:57:04.292Z,94437.00
2019-05-20T00:59:36.555Z,94438.00
2019-05-20T01:02:09.129Z,94435.00
2019-05-20T01:04:41.416Z,94433.00
2019-05-20T01:07:13.255Z,94438.00
2019-05-20T01:09:45.518Z,94439.00
2019-05-20T01:12:17.644Z,94438.00
2019-05-20T01:14:49.536Z,94427.00
2019-05-20T01:17:21.483Z,94427.00
2019-05-20T01:19:53.636Z,94426.00
2019-05-20T01:22:25.468Z,94428.00
2019-05-20T01:24:57.674Z,94411.00
2019-05-20T01:27:29.596Z,94418.00
2019-05-20T01:30:01.699Z,94423.00
2019-05-20T01:32:33.906Z,94419.00
2019-05-20T01:35:06.630Z,94413.00
2019-05-20T01:37:38.589Z,94413.00
2019-05-20T01:40:11.197Z,94415.00
2019-05-20T01:42:43.772Z,94412.00
2019-05-20T01:45:16.766Z,94406.00
2019-05-20T01:47:48.896Z,94411.00
2019-05-20T01:50:20.882Z,94414.00
2019-05-20T01:52:52.734Z,94412.00
2019-05-20T01:55:24.950Z,94417.00
2019-05-20T01:57:58.229Z,94411.00
2019-05-20T02:00:30.741Z,94426.00
2019-05-20T02:03:02.598Z,94423.00
2019-05-20T02:05:35.052Z,94425.00
2019-05-20T02:08:07.076Z,94433.00
2019-05-20T02:10:38.996Z,94424.00
2019-05-20T02:13:11.159Z,94420.00
2019-05-20T02:15:53.119Z,94417.00
2019-05-20T02:18:25.323Z,94419.00
2019-05-20T02:20:57.579Z,94415.00
2019-05-20T02:23:29.852Z,94412.00
2019-05-20T02:26:01.752Z,94414.00
2019-05-20T02:28:33.854Z,94413.00
2019-05-20T02:31:05.784Z,94418.00
2019-05-20T02:33:50.756Z,94414.00
2019-05-20T02:36:11.237Z,94412.00
2019-05-20T02:38:43.103Z,94421.00
2019-05-20T02:41:15.687Z,94421.00
2019-05-20T02:43:47.542Z,94418.00
2019-05-20T02:46:19.470Z,94409.00
2019-05-20T02:48:51.309Z,94412.00
2019-05-20T02:51:32.896Z,94421.00
2019-05-20T02:54:04.740Z,94416.00
2019-05-20T02:56:36.633Z,94411.00
2019-05-20T02:59:08.450Z,94412.00
2019-05-20T03:01:40.606Z,94405.00
2019-05-20T03:04:13.211Z,94406.00
2019-05-20T03:06:45.237Z,94410.00
2019-05-20T03:09:17.514Z,94408.00
2019-05-20T03:11:49.404Z,94401.00
2019-05-20T03:14:21.233Z,94412.00
2019-05-20T03:16:53.383Z,94402.00
2019-05-20T03:19:25.924Z,94407.00
2019-05-20T03:21:58.355Z,94399.00
2019-05-20T03:24:30.202Z,94390.00
2019-05-20T03:27:02.096Z,94390.00
2019-05-20T03:29:33.924Z,94386.00
2019-05-20T03:32:05.800Z,94385.00
2019-05-20T03:34:46.696Z,94391.00
2019-05-20T03:37:11.229Z,94389.00
2019-05-20T03:39:43.086Z,94387.00
2019-05-20T03:42:15.048Z,94381.00
2019-05-20T03:44:47.156Z,94379.00
2019-05-20T03:47:19.339Z,94387.00
2019-05-20T03:49:51.436Z,94373.00
2019-05-20T03:52:23.495Z,94365.00
2019-05-20T03:54:55.355Z,94372.00
2019-05-20T03:57:27.263Z,94358.00
2019-05-20T03:59:59.367Z,94365.00
2019-05-20T04:02:31.343Z,94355.00
2019-05-20T04:05:03.689Z,94358.00
2019-05-20T04:07:35.620Z,94350.00
2019-05-20T04:10:08.213Z,94359.00
2019-05-20T04:12:40.135Z,94360.00
2019-05-20T04:15:12.421Z,94363.00
2019-05-20T04:17:44.327Z,94361.00
2019-05-20T04:20:16.705Z,94365.00
2019-05-20T04:22:48.981Z,94368.00
2019-05-20T04:25:20.841Z,94366.00
2019-05-20T04:27:52.850Z,94363.00
2019-05-20T04:30:24.745Z,94365.00
2019-05-20T04:32:56.750Z,94357.00
2019-05-20T04:35:28.994Z,94363.00
2019-05-20T04:38:03.556Z,94371.00
2019-05-20T04:40:35.792Z,94366.00
2019-05-20T04:43:07.996Z,94361.00
2019-05-20T04:45:39.861Z,94358.00
2019-05-20T04:48:13.807Z,94372.00
2019-05-20T04:50:46.059Z,94369.00
2019-05-20T04:53:18.241Z,94379.00
2019-05-20T04:55:50.676Z,94373.00
2019-05-20T04:58:22.877Z,94378.00
2019-05-20T05:00:59.479Z,94368.00
2019-05-20T05:03:31.398Z,94370.00
2019-05-20T05:06:03.915Z,94371.00
2019-05-20T05:08:35.859Z,94371.00
2019-05-20T05:11:09.514Z,94374.00
2019-05-20T05:13:41.632Z,94368.00
2019-05-20T05:16:55.861Z,94377.00
2019-05-20T05:19:46.839Z,94367.00
2019-05-20T05:22:22.595Z,94370.00
2019-05-20T05:24:55.232Z,94366.00
2019-05-20T05:27:27.128Z,94368.00
2019-05-20T05:29:59.360Z,94365.00
2019-05-20T05:32:44.394Z,94370.00
2019-05-20T05:35:17.841Z,94361.00
2019-05-20T05:37:49.780Z,94368.00
2019-05-20T05:40:26.426Z,94368.00
2019-05-20T05:42:58.287Z,94360.00
2019-05-20T05:45:34.375Z,94362.00
2019-05-20T05:48:06.849Z,94372.00
2019-05-20T05:50:39.406Z,94363.00
2019-05-20T05:53:11.898Z,94356.00
2019-05-20T05:55:48.103Z,94349.00
2019-05-20T05:58:20.232Z,94362.00
2019-05-20T06:00:52.730Z,94363.00
2019-05-20T06:03:25.003Z,94357.00
2019-05-20T06:06:11.331Z,94369.00
2019-05-20T06:08:31.207Z,94362.00
2019-05-20T06:11:03.446Z,94372.00
2019-05-20T06:13:35.737Z,94368.00
2019-05-20T06:16:07.638Z,94365.00
2019-05-20T06:18:39.792Z,94366.00
2019-05-20T06:21:11.718Z,94371.00
2019-05-20T06:23:43.569Z,94367.00
2019-05-20T06:26:15.811Z,94373.00
2019-05-20T06:28:47.668Z,94369.00
2019-05-20T06:31:20.763Z,94373.00
2019-05-20T06:33:52.610Z,94368.00
2019-05-20T06:36:27.254Z,94368.00
2019-05-20T06:39:14.830Z,94375.00
2019-05-20T06:41:47.160Z,94373.00
2019-05-20T06:44:19.071Z,94372.00
2019-05-20T06:46:51.359Z,94374.00
2019-05-20T06:49:23.216Z,94375.00
2019-05-20T06:51:55.412Z,94372.00
2019-05-20T06:54:27.250Z,94368.00
2019-05-20T06:56:59.657Z,94375.00
2019-05-20T06:59:31.828Z,94368.00
2019-05-20T07:02:03.831Z,94374.00
2019-05-20T07:04:35.945Z,94378.00
2019-05-20T07:07:20.327Z,94376.00
2019-05-20T07:09:42.415Z,94378.00
2019-05-20T07:12:14.315Z,94372.00
2019-05-20T07:14:46.200Z,94369.00
2019-05-20T07:17:18.215Z,94376.00
2019-05-20T07:19:57.959Z,94378.00
2019-05-20T07:22:31.172Z,94383.00
2019-05-20T07:25:04.532Z,94377.00
2019-05-20T07:27:42.653Z,94382.00
2019-05-20T07:30:15.661Z,94380.00
2019-05-20T07:32:47.798Z,94390.00
2019-05-20T07:35:29.367Z,94387.00
2019-05-20T07:37:53.782Z,94383.00
2019-05-20T07:40:33.677Z,94384.00
2019-05-20T07:43:06.322Z,94381.00
2019-05-20T07:45:38.308Z,94388.00
2019-05-20T07:48:10.226Z,94385.00
2019-05-20T07:50:42.696Z,94386.00
2019-05-20T07:53:15.438Z,94384.00
2019-05-20T07:56:03.568Z,94381.00
2019-05-20T07:58:37.611Z,94387.00
2019-05-20T08:01:09.450Z,94388.00
2019-05-20T08:03:41.334Z,94387.00
2019-05-20T08:06:13.458Z,94394.00
2019-05-20T08:08:45.686Z,94396.00
2019-05-20T08:11:17.527Z,94403.00
2019-05-20T08:13:49.524Z,94401.00
2019-05-20T08:16:21.616Z,94415.00
2019-05-20T08:18:53.537Z,94404.00
2019-05-20T08:21:25.768Z,94405.00
2019-05-20T08:23:57.643Z,94416.00
2019-05-20T08:26:30.169Z,94409.00
2019-05-20T08:29:03.038Z,94411.00
2019-05-20T08:31:34.889Z,94409.00
2019-05-20T08:34:06.766Z,94421.00
2019-05-20T08:36:39.365Z,94421.00
2019-05-20T08:39:11.258Z,94427.00
2019-05-20T08:41:43.148Z,94426.00
2019-05-20T08:44:15.303Z,94425.00
2019-05-20T08:46:47.163Z,94425.00
2019-05-20T08:49:19.022Z,94414.00
2019-05-20T08:51:51.289Z,94422.00
2019-05-20T08:54:23.230Z,94420.00
2019-05-20T08:56:55.125Z,94432.00
2019-05-20T08:59:27.067Z,94428.00
2019-05-20T09:01:59.395Z,94433.00
2019-05-20T09:04:31.612Z,94429.00
2019-05-20T09:07:03.571Z,94436.00
2019-05-20T09:09:36.121Z,94429.00
2019-05-20T09:12:08.215Z,94422.00
2019-05-20T09:14:40.726Z,94414.00
2019-05-20T09:17:12.727Z,94418.00
2019-05-20T09:19:47.010Z,94418.00
2019-05-20T09:22:18.280Z,94415.00
2019-05-20T09:24:50.868Z,94407.00
2019-05-20T09:27:23.065Z,94410.00
2019-05-20T09:29:55.130Z,94406.00
2019-05-20T09:32:27.077Z,94410.00
2019-05-20T09:34:59.301Z,94401.00
2019-05-20T09:37:31.200Z,94401.00
2019-05-20T09:40:03.134Z,94407.00
2019-05-20T09:42:35.370Z,94408.00
2019-05-20T09:45:07.652Z,94407.00
2019-05-20T09:47:39.521Z,94406.00
2019-05-20T09:50:11.522Z,94406.00
2019-05-20T09:52:43.768Z,94406.00
2019-05-20T09:55:15.637Z,94410.00
2019-05-20T09:57:47.465Z,94409.00
2019-05-20T10:00:19.477Z,94407.00
2019-05-20T10:02:51.308Z,94413.00
2019-05-20T10:05:23.179Z,94411.00
2019-05-20T10:07:55.272Z,94420.00
2019-05-20T10:10:27.203Z,94418.00
2019-05-20T10:12:59.101Z,94422.00
2019-05-20T10:15:32.164Z,94422.00
2019-05-20T10:18:04.546Z,94429.00
2019-05-20T10:20:36.913Z,94427.00
2019-05-20T10:23:09.361Z,94427.00
2019-05-20T10:25:41.783Z,94423.00
2019-05-20T10:28:15.200Z,94434.00
2019-05-20T10:30:47.780Z,94435.00
2019-05-20T10:33:19.613Z,94437.00
2019-05-20T10:35:51.483Z,94439.00
2019-05-20T10:38:23.890Z,94437.00
2019-05-20T10:40:55.858Z,94439.00
2019-05-20T10:43:28.277Z,94439.00
2019-05-20T10:46:00.467Z,94445.00
2019-05-20T10:48:32.801Z,94446.00
2019-05-20T10:51:04.773Z,94451.00
2019-05-20T10:53:36.668Z,94449.00
2019-05-20T10:56:09.389Z,94452.00
2019-05-20T10:58:41.689Z,94453.00
2019-05-20T11:01:13.867Z,94445.00
2019-05-20T11:03:46.167Z,94459.00
2019-05-20T11:06:19.406Z,94455.00
2019-05-20T11:08:51.724Z,94454.00
2019-05-20T11:11:24.304Z,94462.00
2019-05-20T11:13:56.478Z,94462.00
2019-05-20T11:16:28.368Z,94466.00
2019-05-20T11:19:00.249Z,94474.00
2019-05-20T11:21:32.674Z,94479.00
2019-05-20T11:24:04.682Z,94475.00
2019-05-20T11:26:37.201Z,94476.00
2019-05-20T11:29:09.062Z,94480.00
2019-05-20T11:31:41.435Z,94485.00
2019-05-20T11:34:13.583Z,94490.00
2019-05-20T11:36:45.528Z,94492.00
2019-05-20T11:39:31.313Z,94495.00
2019-05-20T11:41:54.239Z,94489.00
2019-05-20T11:44:24.802Z,94491.00
2019-05-20T11:46:57.025Z,94502.00
2019-05-20T11:49:29.457Z,94497.00
2019-05-20T11:52:01.439Z,94503.00
2019-05-20T11:54:33.291Z,94507.00
2019-05-20T11:57:06.421Z,94501.00
2019-05-20T11:59:38.314Z,94508.00
2019-05-20T12:02:10.663Z,94510.00
2019-05-20T12:04:43.465Z,94511.00
2019-05-20T12:07:15.434Z,94509.00
2019-05-20T12:09:50.110Z,94508.00
2019-05-20T12:12:22.515Z,94505.00
2019-05-20T12:14:54.782Z,94510.00
2019-05-20T12:17:27.402Z,94505.00
2019-05-20T12:19:59.239Z,94507.00
2019-05-20T12:22:31.720Z,94517.00
2019-05-20T12:25:03.665Z,94509.00
2019-05-20T12:27:35.537Z,94512.00
2019-05-20T12:30:08.628Z,94513.00
2019-05-20T12:32:41.667Z,94512.00
2019-05-20T12:35:13.641Z,94501.00
2019-05-20T12:37:45.923Z,94512.00
2019-05-20T12:40:18.385Z,94502.00
2019-05-20T12:42:50.553Z,94502.00
2019-05-20T12:45:22.757Z,94493.00
2019-05-20T12:47:54.675Z,94491.00
2019-05-20T12:50:26.551Z,94494.00
2019-05-20T12:52:58.789Z,94495.00
2019-05-20T12:55:30.932Z,94498.00
2019-05-20T12:58:02.830Z,94502.00
2019-05-20T13:00:34.651Z,94510.00
2019-05-20T13:03:06.967Z,94513.00
2019-05-20T13:05:38.811Z,94502.00
2019-05-20T13:08:11.150Z,94507.00
2019-05-20T13:10:42.960Z,94504.00
2019-05-20T13:13:15.164Z,94505.00
2019-05-20T13:15:47.739Z,94505.00
2019-05-20T13:18:19.641Z,94497.00
2019-05-20T13:20:51.513Z,94495.00
2019-05-20T13:23:23.932Z,94496.00
2019-05-20T13:25:56.108Z,94500.00
2019-05-20T13:28:27.972Z,94505.00
2019-05-20T13:31:00.123Z,94506.00
2019-05-20T13:33:32.088Z,94091.00
2019-05-20T13:36:04.055Z,94499.00
2019-05-20T13:38:35.992Z,94500.00
2019-05-20T13:41:08.123Z,94502.00
2019-05-20T13:43:40.550Z,94496.00
2019-05-20T13:46:12.719Z,94500.00
2019-05-20T13:48:44.913Z,94498.00
2019-05-20T13:51:17.110Z,94488.00
2019-05-20T13:53:50.256Z,94441.00
2019-05-20T13:56:22.362Z,94490.00
2019-05-20T13:58:54.256Z,94488.00
2019-05-20T14:01:26.083Z,94488.00
2019-05-20T14:03:58.071Z,94484.00
2019-05-20T14:06:30.277Z,94490.00
2019-05-20T14:09:07.302Z,94478.00
2019-05-20T14:11:37.332Z,94484.00
2019-05-20T14:14:09.773Z,94476.00
2019-05-20T14:16:41.977Z,94470.00
2019-05-20T14:19:14.255Z,94476.00
2019-05-20T14:21:46.421Z,94471.00
2019-05-20T14:24:18.301Z,94469.00
2019-05-20T14:26:50.150Z,94466.00
2019-05-20T14:29:22.071Z,94479.00
2019-05-20T14:31:53.975Z,94471.00
2019-05-20T14:34:26.444Z,94478.00
2019-05-20T14:36:58.844Z,94478.00
2019-05-20T14:39:30.724Z,94478.00
2019-05-20T14:42:02.589Z,94473.00
2019-05-20T14:44:34.553Z,94478.00
2019-05-20T14:47:06.404Z,94481.00
2019-05-20T14:49:39.151Z,94478.00
2019-05-20T14:52:11.699Z,94482.00
2019-05-20T14:54:43.616Z,94479.00
2019-05-20T14:57:16.266Z,94467.00
2019-05-20T14:59:48.234Z,94473.00
2019-05-20T15:02:20.105Z,94478.00
2019-05-20T15:04:51.999Z,94478.00
2019-05-20T15:07:29.931Z,94470.00
2019-05-20T15:09:57.854Z,94483.00
2019-05-20T15:12:31.650Z,94475.00
2019-05-20T15:15:03.846Z,94479.00
2019-05-20T15:17:36.343Z,94484.00
2019-05-20T15:20:08.886Z,94486.00
2019-05-20T15:22:41.011Z,94493.00
2019-05-20T15:25:13.810Z,94491.00
2019-05-20T15:27:49.715Z,94491.00
2019-05-20T15:30:20.289Z,94489.00
2019-05-20T15:32:54.757Z,94493.00
2019-05-20T15:35:26.745Z,94489.00
2019-05-20T15:37:58.957Z,94491.00
2019-05-20T15:40:30.854Z,94498.00
2019-05-20T15:43:03.291Z,94494.00
2019-05-20T15:45:35.289Z,94487.00
2019-05-20T15:48:07.934Z,94478.00
2019-05-20T15:50:39.971Z,94485.00
2019-05-20T15:53:13.390Z,94484.00
2019-05-20T15:55:45.604Z,94484.00
2019-05-20T15:58:18.034Z,94465.00
2019-05-20T16:00:50.295Z,94470.00
2019-05-20T16:03:22.151Z,94471.00
2019-05-20T16:05:54.919Z,94465.00
2019-05-20T16:08:27.432Z,94468.00
2019-05-20T16:10:59.668Z,94468.00
2019-05-20T16:13:31.550Z,94477.00
2019-05-20T16:16:03.444Z,94470.00
2019-05-20T16:18:35.685Z,94467.00
2019-05-20T16:21:07.679Z,94472.00
2019-05-20T16:23:39.818Z,94477.00
2019-05-20T16:26:12.388Z,94470.00
2019-05-20T16:28:44.750Z,94474.00
2019-05-20T16:31:17.217Z,94478.00
2019-05-20T16:33:49.402Z,94485.00
2019-05-20T16:36:22.133Z,94481.00
2019-05-20T16:38:54.395Z,94499.00
2019-05-20T16:41:27.151Z,94491.00
2019-05-20T16:43:59.313Z,94498.00
2019-05-20T16:46:31.727Z,94495.00
2019-05-20T16:49:04.103Z,94489.00
2019-05-20T16:51:36.775Z,94481.00
2019-05-20T16:54:09.555Z,94494.00
2019-05-20T16:56:41.751Z,94492.00
2019-05-20T16:59:14.817Z,94488.00
2019-05-20T17:01:47.393Z,94491.00
2019-05-20T17:04:19.270Z,94491.00
2019-05-20T17:06:52.396Z,94505.00
2019-05-20T17:09:24.617Z,94495.00
2019-05-20T17:11:57.114Z,94498.00
2019-05-20T17:14:33.055Z,94497.00
2019-05-20T17:17:05.351Z,94505.00
2019-05-20T17:19:37.216Z,94504.00
2019-05-20T17:22:10.428Z,94503.00
2019-05-20T17:24:42.956Z,94513.00
2019-05-20T17:27:15.493Z,94503.00
2019-05-20T17:29:47.801Z,94512.00
2019-05-20T17:32:20.749Z,94503.00
2019-05-20T17:34:53.085Z,94505.00
2019-05-20T17:37:25.993Z,94507.00
2019-05-20T17:40:00.085Z,94498.00
2019-05-20T17:42:33.066Z,94497.00
2019-05-20T17:45:05.091Z,94499.00
2019-05-20T17:47:37.506Z,94495.00
2019-05-20T17:50:10.949Z,94496.00
2019-05-20T17:52:42.972Z,94497.00
2019-05-20T17:55:15.531Z,94500.00
2019-05-20T17:57:47.774Z,94499.00
2019-05-20T18:00:22.386Z,94497.00
2019-05-20T18:02:54.637Z,94498.00
2019-05-20T18:05:26.974Z,94504.00
2019-05-20T18:08:00.526Z,94504.00
2019-05-20T18:10:32.859Z,94502.00
2019-05-20T18:13:04.740Z,94514.00
2019-05-20T18:15:36.596Z,94512.00
2019-05-20T18:18:08.957Z,94508.00
2019-05-20T18:20:41.162Z,94501.00
2019-05-20T18:23:13.069Z,94502.00
2019-05-20T18:25:45.099Z,94501.00
2019-05-20T18:28:17.529Z,94503.00
2019-05-20T18:30:50.162Z,94504.00
2019-05-20T18:33:22.247Z,94509.00
2019-05-20T18:35:54.656Z,94515.00
2019-05-20T18:38:27.185Z,94517.00
2019-05-20T18:40:59.427Z,94512.00
2019-05-20T18:43:32.029Z,94509.00
2019-05-20T18:46:04.358Z,94513.00
2019-05-20T18:48:36.817Z,94508.00
2019-05-20T18:51:09.113Z,94508.00
2019-05-20T18:53:41.268Z,94512.00
2019-05-20T18:56:13.146Z,94505.00
2019-05-20T18:58:45.071Z,94516.00
2019-05-20T19:01:19.564Z,94517.00
2019-05-20T19:03:51.669Z,94522.00
2019-05-20T19:06:23.933Z,94510.00
2019-05-20T19:08:56.082Z,94519.00
2019-05-20T19:11:29.350Z,94521.00
2019-05-20T19:14:02.043Z,94534.00
2019-05-20T19:16:34.730Z,94532.00
2019-05-20T19:19:07.067Z,94532.00
2019-05-20T19:21:39.236Z,94537.00
2019-05-20T19:24:11.457Z,94538.00
2019-05-20T19:26:43.794Z,94551.00
2019-05-20T19:29:16.080Z,94551.00
2019-05-20T19:32:00.863Z,94549.00
2019-05-20T19:34:22.070Z,94557.00
2019-05-20T19:36:53.959Z,94557.00
2019-05-20T19:39:26.981Z,94561.00
2019-05-20T19:41:59.224Z,94562.00
2019-05-20T19:44:31.506Z,94567.00
2019-05-20T19:47:03.738Z,94559.00
2019-05-20T19:49:36.198Z,94559.00
2019-05-20T19:52:08.145Z,94559.00
2019-05-20T19:54:40.127Z,94557.00
2019-05-20T19:57:12.998Z,94559.00
2019-05-20T19:59:45.009Z,94557.00
2019-05-20T20:02:18.142Z,94561.00
2019-05-20T20:04:50.598Z,94539.00
2019-05-20T20:07:22.762Z,94538.00
2019-05-20T20:09:54.963Z,94537.00
2019-05-20T20:12:27.212Z,94528.00
2019-05-20T20:15:02.722Z,94528.00
2019-05-20T20:17:35.210Z,94536.00
2019-05-20T20:20:07.123Z,94537.00
2019-05-20T20:22:39.556Z,94539.00
2019-05-20T20:25:11.879Z,94533.00
2019-05-20T20:27:43.753Z,94535.00
2019-05-20T20:30:16.525Z,94534.00
2019-05-20T20:32:48.638Z,94538.00
2019-05-20T20:35:20.903Z,94539.00
2019-05-20T20:37:53.399Z,94535.00
2019-05-20T20:40:25.708Z,94533.00
2019-05-20T20:42:58.931Z,94576.00
2019-05-20T20:45:31.096Z,94563.00
2019-05-20T20:48:03.242Z,94560.00
2019-05-20T20:50:37.283Z,94573.00
2019-05-20T20:53:09.541Z,94578.00
2019-05-20T20:55:41.851Z,94577.00
2019-05-20T20:58:14.186Z,94567.00
2019-05-20T21:00:46.383Z,94574.00
2019-05-20T21:03:18.702Z,94576.00
2019-05-20T21:05:50.871Z,94567.00
2019-05-20T21:08:22.969Z,94562.00
2019-05-20T21:10:55.302Z,94564.00
2019-05-20T21:13:27.839Z,94564.00
2019-05-20T21:16:00.104Z,94574.00
2019-05-20T21:18:32.063Z,94577.00
2019-05-20T21:21:04.000Z,94578.00
2019-05-20T21:23:38.020Z,94567.00
2019-05-20T21:26:10.130Z,94569.00
2019-05-20T21:28:42.687Z,94567.00
2019-05-20T21:31:15.016Z,94570.00
2019-05-20T21:33:48.994Z,94581.00
2019-05-20T21:36:21.171Z,94568.00
2019-05-20T21:38:53.395Z,94566.00
2019-05-20T21:41:25.925Z,94568.00
2019-05-20T21:43:58.265Z,94564.00
2019-05-20T21:46:30.431Z,94573.00
2019-05-20T21:49:02.424Z,94569.00
2019-05-20T21:51:34.615Z,94569.00
2019-05-20T21:54:06.799Z,94577.00
2019-05-20T21:56:39.150Z,94585.00
2019-05-20T21:59:11.354Z,94581.00
2019-05-20T22:01:43.970Z,94582.00
2019-05-20T22:04:17.075Z,94583.00
2019-05-20T22:06:49.766Z,94582.00
2019-05-20T22:09:22.312Z,94589.00
2019-05-20T22:11:54.492Z,94591.00
2019-05-20T22:14:27.108Z,94584.00
2019-05-20T22:16:59.358Z,94577.00
2019-05-20T22:19:31.477Z,94585.00
2019-05-20T22:22:16.979Z,94583.00
2019-05-20T22:24:49.110Z,94588.00
2019-05-20T22:27:21.066Z,94584.00
2019-05-20T22:29:52.934Z,94588.00
2019-05-20T22:32:24.843Z,94585.00
2019-05-20T22:34:56.691Z,94587.00
2019-05-20T22:37:28.639Z,94591.00
2019-05-20T22:40:00.771Z,94582.00
2019-05-20T22:42:33.594Z,94585.00
2019-05-20T22:45:07.472Z,94589.00
2019-05-20T22:47:39.752Z,94584.00
2019-05-20T22:50:12.132Z,94588.00
2019-05-20T22:52:44.002Z,94588.00
2019-05-20T22:55:15.858Z,94587.00
2019-05-20T22:57:47.793Z,94586.00
2019-05-20T23:00:20.740Z,94589.00
2019-05-20T23:02:53.002Z,94584.00
2019-05-20T23:05:25.478Z,94596.00
2019-05-20T23:07:57.731Z,94579.00
2019-05-20T23:10:29.937Z,94586.00
2019-05-20T23:13:02.239Z,94586.00
2019-05-20T23:15:34.134Z,94582.00
2019-05-20T23:18:06.017Z,94582.00
2019-05-20T23:20:37.869Z,94571.00
2019-05-20T23:23:10.137Z,94576.00
2019-05-20T23:25:42.037Z,94583.00
2019-05-20T23:28:13.906Z,94572.00
2019-05-20T23:30:45.756Z,94589.00
2019-05-20T23:33:17.949Z,94581.00
2019-05-20T23:35:50.068Z,94573.00
2019-05-20T23:38:21.937Z,94582.00
2019-05-20T23:40:53.824Z,94578.00
2019-05-20T23:43:26.013Z,94581.00
2019-05-20T23:45:58.150Z,94579.00
2019-05-20T23:48:30.081Z,94588.00
2019-05-20T23:51:01.920Z,94579.00
2019-05-20T23:53:34.383Z,94580.00
2019-05-20T23:56:06.271Z,94587.00
2019-05-20T23:58:38.583Z,94589.00
